sensor_id;sensor_type;location;lat;lon;timestamp;temperature;humidity
13344;DHT22;6741;48.964;9.406;2022-11-15T00:02:26;7.50;99.90
13344;DHT22;6741;48.964;9.406;2022-11-15T00:04:53;7.50;99.90
13344;DHT22;6741;48.964;9.406;2022-11-15T00:07:20;7.60;99.90
13344;DHT22;6741;48.964;9.406;2022-11-15T00:09:47;7.70;99.90
13344;DHT22;6741;48.964;9.406;2022-11-15T00:12:14;7.60;99.90
13344;DHT22;6741;48.964;9.406;2022-11-15T00:14:40;7.60;99.90
13344;DHT22;6741;48.964;9.406;2022-11-15T00:17:09;7.60;99.90
13344;DHT22;6741;48.964;9.406;2022-11-15T00:19:36;7.60;99.90
13344;DHT22;6741;48.964;9.406;2022-11-15T00:22:03;7.60;99.90
13344;DHT22;6741;48.964;9.406;2022-11-15T00:24:30;7.60;99.90
13344;DHT22;6741;48.964;9.406;2022-11-15T00:26:57;7.60;99.90
13344;DHT22;6741;48.964;9.406;2022-11-15T00:29:24;7.70;99.90
13344;DHT22;6741;48.964;9.406;2022-11-15T00:31:51;7.70;99.90
13344;DHT22;6741;48.964;9.406;2022-11-15T00:34:20;7.70;99.90
13344;DHT22;6741;48.964;9.406;2022-11-15T00:36:47;7.70;99.90
13344;DHT22;6741;48.964;9.406;2022-11-15T00:39:13;7.80;99.90
13344;DHT22;6741;48.964;9.406;2022-11-15T00:41:40;7.80;99.90
13344;DHT22;6741;48.964;9.406;2022-11-15T00:44:07;7.70;99.90
13344;DHT22;6741;48.964;9.406;2022-11-15T00:46:34;7.70;99.90
13344;DHT22;6741;48.964;9.406;2022-11-15T00:49:01;7.80;99.90
13344;DHT22;6741;48.964;9.406;2022-11-15T00:51:29;7.80;99.90
13344;DHT22;6741;48.964;9.406;2022-11-15T00:53:56;7.80;99.90
13344;DHT22;6741;48.964;9.406;2022-11-15T00:56:23;7.70;99.90
13344;DHT22;6741;48.964;9.406;2022-11-15T00:58:50;7.70;99.90
13344;DHT22;6741;48.964;9.406;2022-11-15T01:01:17;7.70;99.90
13344;DHT22;6741;48.964;9.406;2022-11-15T01:03:44;7.70;99.90
13344;DHT22;6741;48.964;9.406;2022-11-15T01:06:11;7.70;99.90
13344;DHT22;6741;48.964;9.406;2022-11-15T01:08:40;7.70;99.90
13344;DHT22;6741;48.964;9.406;2022-11-15T01:11:09;7.60;99.90
13344;DHT22;6741;48.964;9.406;2022-11-15T01:13:37;7.60;99.90
13344;DHT22;6741;48.964;9.406;2022-11-15T01:16:10;7.60;99.90
13344;DHT22;6741;48.964;9.406;2022-11-15T01:18:37;7.60;99.90
13344;DHT22;6741;48.964;9.406;2022-11-15T01:21:08;7.50;99.90
13344;DHT22;6741;48.964;9.406;2022-11-15T01:23:35;7.50;99.90
13344;DHT22;6741;48.964;9.406;2022-11-15T01:26:06;7.40;99.90
13344;DHT22;6741;48.964;9.406;2022-11-15T01:28:35;7.30;99.90
13344;DHT22;6741;48.964;9.406;2022-11-15T01:31:04;7.20;99.90
13344;DHT22;6741;48.964;9.406;2022-11-15T01:33:34;7.00;99.90
13344;DHT22;6741;48.964;9.406;2022-11-15T01:36:03;7.00;99.90
13344;DHT22;6741;48.964;9.406;2022-11-15T01:38:31;7.00;99.90
13344;DHT22;6741;48.964;9.406;2022-11-15T01:40:58;7.00;99.90
13344;DHT22;6741;48.964;9.406;2022-11-15T01:43:28;7.00;99.90
13344;DHT22;6741;48.964;9.406;2022-11-15T01:45:58;6.90;99.90
13344;DHT22;6741;48.964;9.406;2022-11-15T01:48:33;6.90;99.90
13344;DHT22;6741;48.964;9.406;2022-11-15T01:51:02;6.80;99.90
13344;DHT22;6741;48.964;9.406;2022-11-15T01:53:30;6.70;99.90
13344;DHT22;6741;48.964;9.406;2022-11-15T01:55:59;6.70;99.90
13344;DHT22;6741;48.964;9.406;2022-11-15T01:58:30;6.70;99.90
13344;DHT22;6741;48.964;9.406;2022-11-15T02:00:58;6.60;99.90
13344;DHT22;6741;48.964;9.406;2022-11-15T02:03:28;6.60;99.90
13344;DHT22;6741;48.964;9.406;2022-11-15T02:05:57;6.50;99.90
13344;DHT22;6741;48.964;9.406;2022-11-15T02:08:25;6.50;99.90
13344;DHT22;6741;48.964;9.406;2022-11-15T02:10:53;6.60;99.90
13344;DHT22;6741;48.964;9.406;2022-11-15T02:13:20;6.50;99.90
13344;DHT22;6741;48.964;9.406;2022-11-15T02:15:55;6.50;99.90
13344;DHT22;6741;48.964;9.406;2022-11-15T02:18:27;6.50;99.90
13344;DHT22;6741;48.964;9.406;2022-11-15T02:21:11;6.40;99.90
13344;DHT22;6741;48.964;9.406;2022-11-15T02:24:00;6.40;99.90
13344;DHT22;6741;48.964;9.406;2022-11-15T02:27:02;6.30;99.90
13344;DHT22;6741;48.964;9.406;2022-11-15T02:29:51;6.30;99.90
13344;DHT22;6741;48.964;9.406;2022-11-15T02:32:31;6.30;99.90
13344;DHT22;6741;48.964;9.406;2022-11-15T02:35:02;6.40;99.90
13344;DHT22;6741;48.964;9.406;2022-11-15T02:37:39;6.40;99.90
13344;DHT22;6741;48.964;9.406;2022-11-15T02:40:15;6.40;99.90
13344;DHT22;6741;48.964;9.406;2022-11-15T02:42:48;6.40;99.90
13344;DHT22;6741;48.964;9.406;2022-11-15T02:45:39;6.40;99.90
13344;DHT22;6741;48.964;9.406;2022-11-15T02:48:09;6.50;99.90
13344;DHT22;6741;48.964;9.406;2022-11-15T02:50:37;6.50;99.90
13344;DHT22;6741;48.964;9.406;2022-11-15T02:53:04;6.50;99.90
13344;DHT22;6741;48.964;9.406;2022-11-15T02:55:33;6.50;99.90
13344;DHT22;6741;48.964;9.406;2022-11-15T02:58:21;6.50;99.90
13344;DHT22;6741;48.964;9.406;2022-11-15T03:00:58;6.60;99.90
13344;DHT22;6741;48.964;9.406;2022-11-15T03:03:42;6.60;99.90
13344;DHT22;6741;48.964;9.406;2022-11-15T03:06:20;6.70;99.90
13344;DHT22;6741;48.964;9.406;2022-11-15T03:08:57;6.60;99.90
13344;DHT22;6741;48.964;9.406;2022-11-15T03:11:28;6.70;99.90
13344;DHT22;6741;48.964;9.406;2022-11-15T03:13:58;6.60;99.90
13344;DHT22;6741;48.964;9.406;2022-11-15T03:16:29;6.60;99.90
13344;DHT22;6741;48.964;9.406;2022-11-15T03:19:04;6.60;99.90
13344;DHT22;6741;48.964;9.406;2022-11-15T03:21:37;6.60;99.90
13344;DHT22;6741;48.964;9.406;2022-11-15T03:24:08;6.60;99.90
13344;DHT22;6741;48.964;9.406;2022-11-15T03:26:37;6.60;99.90
13344;DHT22;6741;48.964;9.406;2022-11-15T03:29:09;6.50;99.90
13344;DHT22;6741;48.964;9.406;2022-11-15T03:31:42;6.50;99.90
13344;DHT22;6741;48.964;9.406;2022-11-15T03:34:20;6.60;99.90
13344;DHT22;6741;48.964;9.406;2022-11-15T03:36:50;6.60;99.90
13344;DHT22;6741;48.964;9.406;2022-11-15T03:39:19;6.60;99.90
13344;DHT22;6741;48.964;9.406;2022-11-15T03:41:49;6.50;99.90
13344;DHT22;6741;48.964;9.406;2022-11-15T03:44:25;6.40;99.90
13344;DHT22;6741;48.964;9.406;2022-11-15T03:46:57;6.40;99.90
13344;DHT22;6741;48.964;9.406;2022-11-15T03:49:32;6.30;99.90
13344;DHT22;6741;48.964;9.406;2022-11-15T03:52:00;6.30;99.90
13344;DHT22;6741;48.964;9.406;2022-11-15T03:54:28;6.20;99.90
13344;DHT22;6741;48.964;9.406;2022-11-15T03:56:55;6.20;99.90
13344;DHT22;6741;48.964;9.406;2022-11-15T03:59:22;6.20;99.90
13344;DHT22;6741;48.964;9.406;2022-11-15T04:01:49;6.20;99.90
13344;DHT22;6741;48.964;9.406;2022-11-15T04:04:16;6.10;99.90
13344;DHT22;6741;48.964;9.406;2022-11-15T04:06:44;6.00;99.90
13344;DHT22;6741;48.964;9.406;2022-11-15T04:09:11;6.00;99.90
13344;DHT22;6741;48.964;9.406;2022-11-15T04:11:38;5.90;99.90
13344;DHT22;6741;48.964;9.406;2022-11-15T04:14:05;5.90;99.90
13344;DHT22;6741;48.964;9.406;2022-11-15T04:16:32;5.90;99.90
13344;DHT22;6741;48.964;9.406;2022-11-15T04:18:59;5.80;99.90
13344;DHT22;6741;48.964;9.406;2022-11-15T04:21:45;5.80;99.90
13344;DHT22;6741;48.964;9.406;2022-11-15T04:24:29;5.80;99.90
13344;DHT22;6741;48.964;9.406;2022-11-15T04:26:56;5.80;99.90
13344;DHT22;6741;48.964;9.406;2022-11-15T04:29:23;5.90;99.90
13344;DHT22;6741;48.964;9.406;2022-11-15T04:32:02;5.80;99.90
13344;DHT22;6741;48.964;9.406;2022-11-15T04:34:30;5.80;99.90
13344;DHT22;6741;48.964;9.406;2022-11-15T04:36:58;5.90;99.90
13344;DHT22;6741;48.964;9.406;2022-11-15T04:39:43;6.00;99.90
13344;DHT22;6741;48.964;9.406;2022-11-15T04:42:10;6.00;99.90
13344;DHT22;6741;48.964;9.406;2022-11-15T04:44:38;6.10;99.90
13344;DHT22;6741;48.964;9.406;2022-11-15T04:47:05;6.00;99.90
13344;DHT22;6741;48.964;9.406;2022-11-15T04:49:32;6.00;99.90
13344;DHT22;6741;48.964;9.406;2022-11-15T04:52:00;5.90;99.90
13344;DHT22;6741;48.964;9.406;2022-11-15T04:54:27;6.00;99.90
13344;DHT22;6741;48.964;9.406;2022-11-15T04:56:54;6.00;99.90
13344;DHT22;6741;48.964;9.406;2022-11-15T04:59:21;6.00;99.90
13344;DHT22;6741;48.964;9.406;2022-11-15T05:01:48;6.00;99.90
13344;DHT22;6741;48.964;9.406;2022-11-15T05:04:15;6.00;99.90
13344;DHT22;6741;48.964;9.406;2022-11-15T05:06:48;6.00;99.90
13344;DHT22;6741;48.964;9.406;2022-11-15T05:09:17;5.90;99.90
13344;DHT22;6741;48.964;9.406;2022-11-15T05:11:44;5.90;99.90
13344;DHT22;6741;48.964;9.406;2022-11-15T05:14:12;5.90;99.90
13344;DHT22;6741;48.964;9.406;2022-11-15T05:16:39;6.00;99.90
13344;DHT22;6741;48.964;9.406;2022-11-15T05:19:06;6.00;99.90
13344;DHT22;6741;48.964;9.406;2022-11-15T05:21:34;6.00;99.90
13344;DHT22;6741;48.964;9.406;2022-11-15T05:24:02;6.00;99.90
13344;DHT22;6741;48.964;9.406;2022-11-15T05:26:30;6.10;99.90
13344;DHT22;6741;48.964;9.406;2022-11-15T05:28:58;6.10;99.90
13344;DHT22;6741;48.964;9.406;2022-11-15T05:31:26;6.10;99.90
13344;DHT22;6741;48.964;9.406;2022-11-15T05:33:54;6.10;99.90
13344;DHT22;6741;48.964;9.406;2022-11-15T05:36:27;6.10;99.90
13344;DHT22;6741;48.964;9.406;2022-11-15T05:38:56;6.00;99.90
13344;DHT22;6741;48.964;9.406;2022-11-15T05:41:29;6.00;99.90
13344;DHT22;6741;48.964;9.406;2022-11-15T05:44:00;6.00;99.90
13344;DHT22;6741;48.964;9.406;2022-11-15T05:46:28;6.00;99.90
13344;DHT22;6741;48.964;9.406;2022-11-15T05:48:56;5.90;99.90
13344;DHT22;6741;48.964;9.406;2022-11-15T05:51:24;5.90;99.90
13344;DHT22;6741;48.964;9.406;2022-11-15T05:53:55;5.90;99.90
13344;DHT22;6741;48.964;9.406;2022-11-15T05:56:23;5.90;99.90
13344;DHT22;6741;48.964;9.406;2022-11-15T05:58:52;5.80;99.90
13344;DHT22;6741;48.964;9.406;2022-11-15T06:01:20;5.80;99.90
13344;DHT22;6741;48.964;9.406;2022-11-15T06:03:48;5.70;99.90
13344;DHT22;6741;48.964;9.406;2022-11-15T06:06:14;5.60;99.90
13344;DHT22;6741;48.964;9.406;2022-11-15T06:08:41;5.60;99.90
13344;DHT22;6741;48.964;9.406;2022-11-15T06:11:08;5.60;99.90
13344;DHT22;6741;48.964;9.406;2022-11-15T06:13:35;5.60;99.90
13344;DHT22;6741;48.964;9.406;2022-11-15T06:16:03;5.60;99.90
13344;DHT22;6741;48.964;9.406;2022-11-15T06:18:34;5.50;99.90
13344;DHT22;6741;48.964;9.406;2022-11-15T06:21:01;5.50;99.90
13344;DHT22;6741;48.964;9.406;2022-11-15T06:23:30;5.50;99.90
13344;DHT22;6741;48.964;9.406;2022-11-15T06:25:58;5.50;99.90
13344;DHT22;6741;48.964;9.406;2022-11-15T06:28:28;5.50;99.90
13344;DHT22;6741;48.964;9.406;2022-11-15T06:30:55;5.40;99.90
13344;DHT22;6741;48.964;9.406;2022-11-15T06:33:22;5.40;99.90
13344;DHT22;6741;48.964;9.406;2022-11-15T06:35:50;5.40;99.90
13344;DHT22;6741;48.964;9.406;2022-11-15T06:38:17;5.30;99.90
13344;DHT22;6741;48.964;9.406;2022-11-15T06:40:44;5.30;99.90
13344;DHT22;6741;48.964;9.406;2022-11-15T06:43:11;5.30;99.90
13344;DHT22;6741;48.964;9.406;2022-11-15T06:45:38;5.30;99.90
13344;DHT22;6741;48.964;9.406;2022-11-15T06:48:05;5.30;99.90
13344;DHT22;6741;48.964;9.406;2022-11-15T06:50:32;5.20;99.90
13344;DHT22;6741;48.964;9.406;2022-11-15T06:53:04;5.20;99.90
13344;DHT22;6741;48.964;9.406;2022-11-15T06:55:31;5.20;99.90
13344;DHT22;6741;48.964;9.406;2022-11-15T06:57:58;5.20;99.90
13344;DHT22;6741;48.964;9.406;2022-11-15T07:00:25;5.20;99.90
13344;DHT22;6741;48.964;9.406;2022-11-15T07:02:51;5.30;99.90
13344;DHT22;6741;48.964;9.406;2022-11-15T07:05:18;5.30;99.90
13344;DHT22;6741;48.964;9.406;2022-11-15T07:07:51;5.30;99.90
13344;DHT22;6741;48.964;9.406;2022-11-15T07:10:20;5.30;99.90
13344;DHT22;6741;48.964;9.406;2022-11-15T07:12:49;5.30;99.90
13344;DHT22;6741;48.964;9.406;2022-11-15T07:15:17;5.30;99.90
13344;DHT22;6741;48.964;9.406;2022-11-15T07:17:44;5.40;99.90
13344;DHT22;6741;48.964;9.406;2022-11-15T07:20:13;5.40;99.90
13344;DHT22;6741;48.964;9.406;2022-11-15T07:22:40;5.40;99.90
13344;DHT22;6741;48.964;9.406;2022-11-15T07:25:10;5.50;99.90
13344;DHT22;6741;48.964;9.406;2022-11-15T07:27:38;5.50;99.90
13344;DHT22;6741;48.964;9.406;2022-11-15T07:30:06;5.60;99.90
13344;DHT22;6741;48.964;9.406;2022-11-15T07:32:34;5.70;99.90
13344;DHT22;6741;48.964;9.406;2022-11-15T07:35:01;5.70;99.90
13344;DHT22;6741;48.964;9.406;2022-11-15T07:37:28;5.70;99.90
13344;DHT22;6741;48.964;9.406;2022-11-15T07:39:55;5.80;99.90
13344;DHT22;6741;48.964;9.406;2022-11-15T07:42:22;5.80;99.90
13344;DHT22;6741;48.964;9.406;2022-11-15T07:45:08;6.00;99.90
13344;DHT22;6741;48.964;9.406;2022-11-15T07:47:35;6.10;99.90
13344;DHT22;6741;48.964;9.406;2022-11-15T07:50:02;6.10;99.90
13344;DHT22;6741;48.964;9.406;2022-11-15T07:52:29;6.20;99.90
13344;DHT22;6741;48.964;9.406;2022-11-15T07:54:56;6.30;99.90
13344;DHT22;6741;48.964;9.406;2022-11-15T07:57:23;6.40;99.90
13344;DHT22;6741;48.964;9.406;2022-11-15T07:59:50;6.60;99.90
13344;DHT22;6741;48.964;9.406;2022-11-15T08:02:18;6.70;99.90
13344;DHT22;6741;48.964;9.406;2022-11-15T08:04:45;6.80;99.90
13344;DHT22;6741;48.964;9.406;2022-11-15T08:07:13;7.00;99.90
13344;DHT22;6741;48.964;9.406;2022-11-15T08:09:40;7.10;99.90
13344;DHT22;6741;48.964;9.406;2022-11-15T08:12:07;7.30;99.90
13344;DHT22;6741;48.964;9.406;2022-11-15T08:14:34;7.40;99.90
13344;DHT22;6741;48.964;9.406;2022-11-15T08:17:01;7.60;99.90
13344;DHT22;6741;48.964;9.406;2022-11-15T08:19:30;7.80;99.90
13344;DHT22;6741;48.964;9.406;2022-11-15T08:21:57;7.90;99.90
13344;DHT22;6741;48.964;9.406;2022-11-15T08:24:24;8.10;99.90
13344;DHT22;6741;48.964;9.406;2022-11-15T08:26:51;8.20;99.90
13344;DHT22;6741;48.964;9.406;2022-11-15T08:29:18;8.40;99.90
13344;DHT22;6741;48.964;9.406;2022-11-15T08:31:45;8.50;99.90
13344;DHT22;6741;48.964;9.406;2022-11-15T08:34:12;8.70;99.90
13344;DHT22;6741;48.964;9.406;2022-11-15T08:36:40;8.90;99.90
13344;DHT22;6741;48.964;9.406;2022-11-15T08:39:10;9.00;99.90
13344;DHT22;6741;48.964;9.406;2022-11-15T08:41:37;9.20;99.90
13344;DHT22;6741;48.964;9.406;2022-11-15T08:44:04;9.20;99.90
13344;DHT22;6741;48.964;9.406;2022-11-15T08:46:31;9.30;99.90
13344;DHT22;6741;48.964;9.406;2022-11-15T08:48:58;9.40;99.90
13344;DHT22;6741;48.964;9.406;2022-11-15T08:51:25;9.50;99.90
13344;DHT22;6741;48.964;9.406;2022-11-15T08:53:54;9.70;99.90
13344;DHT22;6741;48.964;9.406;2022-11-15T08:56:21;9.80;99.90
13344;DHT22;6741;48.964;9.406;2022-11-15T08:58:47;10.10;99.90
13344;DHT22;6741;48.964;9.406;2022-11-15T09:01:16;10.20;99.90
13344;DHT22;6741;48.964;9.406;2022-11-15T09:03:44;10.40;99.90
13344;DHT22;6741;48.964;9.406;2022-11-15T09:06:11;10.40;99.90
13344;DHT22;6741;48.964;9.406;2022-11-15T09:08:38;10.50;99.90
13344;DHT22;6741;48.964;9.406;2022-11-15T09:11:08;10.40;99.90
13344;DHT22;6741;48.964;9.406;2022-11-15T09:13:36;10.50;99.90
13344;DHT22;6741;48.964;9.406;2022-11-15T09:16:04;10.70;99.90
13344;DHT22;6741;48.964;9.406;2022-11-15T09:18:31;10.90;99.90
13344;DHT22;6741;48.964;9.406;2022-11-15T09:20:59;11.20;99.90
13344;DHT22;6741;48.964;9.406;2022-11-15T09:23:27;11.40;99.90
13344;DHT22;6741;48.964;9.406;2022-11-15T09:25:59;11.70;99.90
13344;DHT22;6741;48.964;9.406;2022-11-15T09:28:28;11.90;99.90
13344;DHT22;6741;48.964;9.406;2022-11-15T09:30:57;12.00;99.90
13344;DHT22;6741;48.964;9.406;2022-11-15T09:33:25;12.00;99.90
13344;DHT22;6741;48.964;9.406;2022-11-15T09:35:52;12.10;99.90
13344;DHT22;6741;48.964;9.406;2022-11-15T09:38:20;12.30;99.90
13344;DHT22;6741;48.964;9.406;2022-11-15T09:40:50;12.50;99.90
13344;DHT22;6741;48.964;9.406;2022-11-15T09:43:31;12.50;99.90
13344;DHT22;6741;48.964;9.406;2022-11-15T09:46:07;12.70;99.90
13344;DHT22;6741;48.964;9.406;2022-11-15T09:48:51;12.80;99.90
13344;DHT22;6741;48.964;9.406;2022-11-15T09:51:29;12.70;99.90
13344;DHT22;6741;48.964;9.406;2022-11-15T09:54:01;12.80;99.90
13344;DHT22;6741;48.964;9.406;2022-11-15T09:56:31;12.90;99.90
13344;DHT22;6741;48.964;9.406;2022-11-15T09:59:20;13.00;99.90
13344;DHT22;6741;48.964;9.406;2022-11-15T10:01:55;13.30;99.90
13344;DHT22;6741;48.964;9.406;2022-11-15T10:04:23;13.60;99.90
13344;DHT22;6741;48.964;9.406;2022-11-15T10:06:56;13.70;74.30
13344;DHT22;6741;48.964;9.406;2022-11-15T10:09:28;13.80;42.70
13344;DHT22;6741;48.964;9.406;2022-11-15T10:11:56;14.10;32.00
13344;DHT22;6741;48.964;9.406;2022-11-15T10:14:27;14.90;9.70
13344;DHT22;6741;48.964;9.406;2022-11-15T10:19:27;17.30;1.00
13344;DHT22;6741;48.964;9.406;2022-11-15T10:22:04;17.20;1.00
13344;DHT22;6741;48.964;9.406;2022-11-15T10:24:35;17.80;1.00
13344;DHT22;6741;48.964;9.406;2022-11-15T10:27:09;17.30;1.00
13344;DHT22;6741;48.964;9.406;2022-11-15T10:29:42;16.90;99.90
13344;DHT22;6741;48.964;9.406;2022-11-15T10:32:10;16.60;1.00
13344;DHT22;6741;48.964;9.406;2022-11-15T10:34:38;16.40;1.00
13344;DHT22;6741;48.964;9.406;2022-11-15T10:37:05;16.20;99.90
13344;DHT22;6741;48.964;9.406;2022-11-15T10:39:32;15.90;1.00
13344;DHT22;6741;48.964;9.406;2022-11-15T10:42:15;15.60;1.00
13344;DHT22;6741;48.964;9.406;2022-11-15T10:44:45;15.50;1.00
13344;DHT22;6741;48.964;9.406;2022-11-15T10:47:25;15.30;1.00
13344;DHT22;6741;48.964;9.406;2022-11-15T10:49:55;15.00;1.00
13344;DHT22;6741;48.964;9.406;2022-11-15T10:52:23;14.80;1.00
13344;DHT22;6741;48.964;9.406;2022-11-15T10:54:53;14.50;1.00
13344;DHT22;6741;48.964;9.406;2022-11-15T10:57:22;14.40;1.00
13344;DHT22;6741;48.964;9.406;2022-11-15T10:59:54;14.30;1.00
13344;DHT22;6741;48.964;9.406;2022-11-15T11:02:30;14.40;1.00
13344;DHT22;6741;48.964;9.406;2022-11-15T11:04:59;14.50;1.00
13344;DHT22;6741;48.964;9.406;2022-11-15T11:07:27;14.50;1.00
13344;DHT22;6741;48.964;9.406;2022-11-15T11:10:00;14.40;1.00
13344;DHT22;6741;48.964;9.406;2022-11-15T11:12:29;14.40;1.00
13344;DHT22;6741;48.964;9.406;2022-11-15T11:15:00;14.40;1.00
13344;DHT22;6741;48.964;9.406;2022-11-15T11:17:46;14.40;1.00
13344;DHT22;6741;48.964;9.406;2022-11-15T11:20:20;14.30;1.00
13344;DHT22;6741;48.964;9.406;2022-11-15T11:23:04;14.50;1.00
13344;DHT22;6741;48.964;9.406;2022-11-15T11:25:44;14.50;1.00
13344;DHT22;6741;48.964;9.406;2022-11-15T11:28:22;14.50;12.90
13344;DHT22;6741;48.964;9.406;2022-11-15T11:31:01;14.50;1.00
13344;DHT22;6741;48.964;9.406;2022-11-15T11:33:34;14.20;1.00
13344;DHT22;6741;48.964;9.406;2022-11-15T11:36:11;14.10;1.00
13344;DHT22;6741;48.964;9.406;2022-11-15T11:39:03;14.10;1.40
13344;DHT22;6741;48.964;9.406;2022-11-15T11:41:46;14.20;1.50
13344;DHT22;6741;48.964;9.406;2022-11-15T11:44:47;14.30;1.00
13344;DHT22;6741;48.964;9.406;2022-11-15T11:47:23;14.50;1.00
13344;DHT22;6741;48.964;9.406;2022-11-15T11:49:52;14.70;1.00
13344;DHT22;6741;48.964;9.406;2022-11-15T11:52:24;14.70;1.00
13344;DHT22;6741;48.964;9.406;2022-11-15T11:55:00;14.90;1.00
13344;DHT22;6741;48.964;9.406;2022-11-15T11:57:41;15.00;1.00
13344;DHT22;6741;48.964;9.406;2022-11-15T12:00:18;15.10;1.00
13344;DHT22;6741;48.964;9.406;2022-11-15T12:02:53;15.10;1.00
13344;DHT22;6741;48.964;9.406;2022-11-15T12:05:26;14.90;16.30
13344;DHT22;6741;48.964;9.406;2022-11-15T12:08:01;15.00;1.00
13344;DHT22;6741;48.964;9.406;2022-11-15T12:10:32;15.10;1.00
13344;DHT22;6741;48.964;9.406;2022-11-15T12:13:03;15.10;17.50
13344;DHT22;6741;48.964;9.406;2022-11-15T12:15:37;15.10;2.00
13344;DHT22;6741;48.964;9.406;2022-11-15T12:18:12;15.00;1.00
13344;DHT22;6741;48.964;9.406;2022-11-15T12:20:42;15.20;1.00
13344;DHT22;6741;48.964;9.406;2022-11-15T12:23:20;15.20;27.60
13344;DHT22;6741;48.964;9.406;2022-11-15T12:25:52;15.30;21.40
13344;DHT22;6741;48.964;9.406;2022-11-15T12:28:24;15.50;9.40
13344;DHT22;6741;48.964;9.406;2022-11-15T12:30:59;15.60;1.00
13344;DHT22;6741;48.964;9.406;2022-11-15T12:33:37;15.90;1.00
13344;DHT22;6741;48.964;9.406;2022-11-15T12:36:08;15.80;1.00
13344;DHT22;6741;48.964;9.406;2022-11-15T12:38:54;16.20;1.00
13344;DHT22;6741;48.964;9.406;2022-11-15T12:41:23;16.50;1.00
13344;DHT22;6741;48.964;9.406;2022-11-15T12:43:51;16.70;1.00
13344;DHT22;6741;48.964;9.406;2022-11-15T12:46:23;16.80;1.00
13344;DHT22;6741;48.964;9.406;2022-11-15T12:48:56;16.70;1.00
13344;DHT22;6741;48.964;9.406;2022-11-15T12:54:54;16.50;1.00
13344;DHT22;6741;48.964;9.406;2022-11-15T12:57:36;16.20;1.00
13344;DHT22;6741;48.964;9.406;2022-11-15T13:03:20;16.00;1.00
13344;DHT22;6741;48.964;9.406;2022-11-15T13:06:33;15.80;1.00
13344;DHT22;6741;48.964;9.406;2022-11-15T13:09:02;15.70;1.80
13344;DHT22;6741;48.964;9.406;2022-11-15T13:11:45;15.60;20.10
13344;DHT22;6741;48.964;9.406;2022-11-15T13:14:38;15.60;16.90
13344;DHT22;6741;48.964;9.406;2022-11-15T13:20:17;15.50;5.20
13344;DHT22;6741;48.964;9.406;2022-11-15T13:22:47;15.40;23.20
13344;DHT22;6741;48.964;9.406;2022-11-15T13:25:49;15.40;39.90
13344;DHT22;6741;48.964;9.406;2022-11-15T13:28:24;15.50;47.80
13344;DHT22;6741;48.964;9.406;2022-11-15T13:30:55;15.40;3.10
13344;DHT22;6741;48.964;9.406;2022-11-15T13:33:24;15.40;6.20
13344;DHT22;6741;48.964;9.406;2022-11-15T13:35:56;15.30;25.00
13344;DHT22;6741;48.964;9.406;2022-11-15T13:38:27;15.20;23.40
13344;DHT22;6741;48.964;9.406;2022-11-15T13:40:57;15.30;21.90
13344;DHT22;6741;48.964;9.406;2022-11-15T13:43:31;15.30;39.80
13344;DHT22;6741;48.964;9.406;2022-11-15T13:46:10;15.40;24.90
13344;DHT22;6741;48.964;9.406;2022-11-15T13:48:38;15.30;33.50
13344;DHT22;6741;48.964;9.406;2022-11-15T13:51:08;15.30;26.90
13344;DHT22;6741;48.964;9.406;2022-11-15T13:53:40;15.20;37.50
13344;DHT22;6741;48.964;9.406;2022-11-15T13:56:10;15.10;35.10
13344;DHT22;6741;48.964;9.406;2022-11-15T13:58:38;15.10;39.40
13344;DHT22;6741;48.964;9.406;2022-11-15T14:01:06;15.00;55.20
13344;DHT22;6741;48.964;9.406;2022-11-15T14:03:35;14.90;71.80
13344;DHT22;6741;48.964;9.406;2022-11-15T14:06:07;14.90;79.60
13344;DHT22;6741;48.964;9.406;2022-11-15T14:08:37;14.80;99.50
13344;DHT22;6741;48.964;9.406;2022-11-15T14:11:24;14.70;99.90
13344;DHT22;6741;48.964;9.406;2022-11-15T14:14:19;14.70;99.90
13344;DHT22;6741;48.964;9.406;2022-11-15T14:16:48;14.70;99.90
13344;DHT22;6741;48.964;9.406;2022-11-15T14:19:37;14.70;99.50
13344;DHT22;6741;48.964;9.406;2022-11-15T14:22:15;14.70;98.00
13344;DHT22;6741;48.964;9.406;2022-11-15T14:24:44;14.70;99.90
13344;DHT22;6741;48.964;9.406;2022-11-15T14:27:23;14.60;99.90
13344;DHT22;6741;48.964;9.406;2022-11-15T14:29:50;14.50;99.90
13344;DHT22;6741;48.964;9.406;2022-11-15T14:32:19;14.40;99.90
13344;DHT22;6741;48.964;9.406;2022-11-15T14:34:47;14.30;99.90
13344;DHT22;6741;48.964;9.406;2022-11-15T14:37:25;14.20;99.90
13344;DHT22;6741;48.964;9.406;2022-11-15T14:39:53;14.10;99.90
13344;DHT22;6741;48.964;9.406;2022-11-15T14:42:23;14.10;99.90
13344;DHT22;6741;48.964;9.406;2022-11-15T14:44:50;14.00;99.90
13344;DHT22;6741;48.964;9.406;2022-11-15T14:47:18;14.00;99.90
13344;DHT22;6741;48.964;9.406;2022-11-15T14:49:46;13.90;99.90
13344;DHT22;6741;48.964;9.406;2022-11-15T14:52:26;13.80;99.90
13344;DHT22;6741;48.964;9.406;2022-11-15T14:54:54;13.70;99.90
13344;DHT22;6741;48.964;9.406;2022-11-15T14:57:22;13.60;99.90
13344;DHT22;6741;48.964;9.406;2022-11-15T14:59:49;13.60;99.90
13344;DHT22;6741;48.964;9.406;2022-11-15T15:02:18;13.50;99.90
13344;DHT22;6741;48.964;9.406;2022-11-15T15:04:46;13.40;99.90
13344;DHT22;6741;48.964;9.406;2022-11-15T15:07:13;13.40;99.90
13344;DHT22;6741;48.964;9.406;2022-11-15T15:09:41;13.30;99.90
13344;DHT22;6741;48.964;9.406;2022-11-15T15:12:16;13.20;99.90
13344;DHT22;6741;48.964;9.406;2022-11-15T15:14:47;13.30;99.90
13344;DHT22;6741;48.964;9.406;2022-11-15T15:17:14;13.30;99.90
13344;DHT22;6741;48.964;9.406;2022-11-15T15:19:41;13.10;99.90
13344;DHT22;6741;48.964;9.406;2022-11-15T15:22:14;13.00;99.90
13344;DHT22;6741;48.964;9.406;2022-11-15T15:24:42;12.90;99.90
13344;DHT22;6741;48.964;9.406;2022-11-15T15:27:09;12.80;99.90
13344;DHT22;6741;48.964;9.406;2022-11-15T15:29:36;12.60;99.90
13344;DHT22;6741;48.964;9.406;2022-11-15T15:32:05;12.60;99.90
13344;DHT22;6741;48.964;9.406;2022-11-15T15:34:32;12.60;99.90
13344;DHT22;6741;48.964;9.406;2022-11-15T15:37:21;12.40;99.90
13344;DHT22;6741;48.964;9.406;2022-11-15T15:39:49;12.30;99.90
13344;DHT22;6741;48.964;9.406;2022-11-15T15:42:17;12.30;99.90
13344;DHT22;6741;48.964;9.406;2022-11-15T15:44:44;12.20;99.90
13344;DHT22;6741;48.964;9.406;2022-11-15T15:47:15;12.20;99.90
13344;DHT22;6741;48.964;9.406;2022-11-15T15:49:42;12.20;99.90
13344;DHT22;6741;48.964;9.406;2022-11-15T15:52:09;12.10;99.90
13344;DHT22;6741;48.964;9.406;2022-11-15T15:54:37;12.10;99.90
13344;DHT22;6741;48.964;9.406;2022-11-15T15:57:04;12.00;99.90
13344;DHT22;6741;48.964;9.406;2022-11-15T15:59:31;11.90;99.90
13344;DHT22;6741;48.964;9.406;2022-11-15T16:01:59;11.80;99.90
13344;DHT22;6741;48.964;9.406;2022-11-15T16:04:27;11.80;99.90
13344;DHT22;6741;48.964;9.406;2022-11-15T16:06:58;11.70;99.90
13344;DHT22;6741;48.964;9.406;2022-11-15T16:09:25;11.60;99.90
13344;DHT22;6741;48.964;9.406;2022-11-15T16:12:06;11.50;99.90
13344;DHT22;6741;48.964;9.406;2022-11-15T16:14:34;11.50;99.90
13344;DHT22;6741;48.964;9.406;2022-11-15T16:17:01;11.40;99.90
13344;DHT22;6741;48.964;9.406;2022-11-15T16:19:29;11.40;99.90
13344;DHT22;6741;48.964;9.406;2022-11-15T16:21:56;11.40;99.90
13344;DHT22;6741;48.964;9.406;2022-11-15T16:24:23;11.30;99.90
13344;DHT22;6741;48.964;9.406;2022-11-15T16:26:51;11.30;99.90
13344;DHT22;6741;48.964;9.406;2022-11-15T16:29:18;11.20;99.90
13344;DHT22;6741;48.964;9.406;2022-11-15T16:31:45;11.20;99.90
13344;DHT22;6741;48.964;9.406;2022-11-15T16:34:12;11.20;99.90